createdAt,value
2022-08-16T00:01:33.780Z,99035.81
2022-08-16T00:03:37.748Z,99031.41
2022-08-16T00:05:48.278Z,99044.13
2022-08-16T00:07:56.901Z,99036.34
2022-08-16T00:10:00.492Z,99043.84
2022-08-16T00:12:02.933Z,99018.56
2022-08-16T00:14:12.564Z,99036.38
2022-08-16T00:17:06.509Z,99025.41
2022-08-16T00:18:36.941Z,99032.34
2022-08-16T00:20:42.507Z,99042.28
2022-08-16T00:22:45.840Z,99048.16
2022-08-16T00:24:51.540Z,99046.34
2022-08-16T00:26:54.232Z,99045.47
2022-08-16T00:28:58.093Z,99036.75
2022-08-16T00:31:01.417Z,99031.91
2022-08-16T00:33:04.848Z,99035.91
2022-08-16T00:35:15.321Z,99062.81
2022-08-16T00:37:20.250Z,99058.66
2022-08-16T00:39:22.832Z,99061.78
2022-08-16T00:41:28.511Z,99058.38
2022-08-16T00:43:42.738Z,99065.13
2022-08-16T00:46:00.578Z,99063.91
2022-08-16T00:48:31.049Z,99057.44
2022-08-16T00:50:38.388Z,99052.75
2022-08-16T00:52:50.384Z,99061.13
2022-08-16T00:54:53.930Z,99058.38
2022-08-16T00:57:01.069Z,99062.38
2022-08-16T00:59:06.184Z,99059.66
2022-08-16T01:01:10.643Z,99040.91
2022-08-16T01:03:16.152Z,99063.13
2022-08-16T01:05:18.487Z,99069.63
2022-08-16T01:07:20.757Z,99069.25
2022-08-16T01:09:23.057Z,99079.09
2022-08-16T01:11:26.835Z,99070.56
2022-08-16T01:13:33.307Z,99081.59
2022-08-16T01:15:42.971Z,99077.09
2022-08-16T01:17:47.929Z,99058.53
2022-08-16T01:20:04.708Z,99066.72
2022-08-16T01:22:59.394Z,99087.41
2022-08-16T01:25:09.180Z,99089.53
2022-08-16T01:27:22.328Z,99086.63
2022-08-16T01:29:56.613Z,99068.72
2022-08-16T01:31:57.243Z,99063.94
2022-08-16T01:33:59.815Z,99097.47
2022-08-16T01:36:12.173Z,99090.19
2022-08-16T01:38:34.678Z,99084.47
2022-08-16T01:40:36.670Z,99075.59
2022-08-16T01:42:42.554Z,99081.41
2022-08-16T01:44:45.156Z,99063.91
2022-08-16T01:46:49.621Z,99064.66
2022-08-16T01:49:00.912Z,99076.44
2022-08-16T01:51:09.644Z,99078.97
2022-08-16T01:53:20.033Z,99060.56
2022-08-16T01:55:53.746Z,99059.34
2022-08-16T01:57:57.121Z,99070.66
2022-08-16T02:00:18.896Z,99062.97
2022-08-16T02:02:27.025Z,99073.34
2022-08-16T02:04:49.028Z,99064.84
2022-08-16T02:06:56.844Z,99083.53
2022-08-16T02:08:58.957Z,99074.28
2022-08-16T02:11:07.137Z,99082.59
2022-08-16T02:13:09.696Z,99084.66
2022-08-16T02:15:14.077Z,99079.63
2022-08-16T02:17:16.820Z,99073.06
2022-08-16T02:19:20.161Z,99082.03
2022-08-16T02:21:31.481Z,99077.38
2022-08-16T02:23:37.580Z,99076.22
2022-08-16T02:25:52.407Z,99075.41
2022-08-16T02:27:57.500Z,99071.69
2022-08-16T02:30:10.589Z,99068.09
2022-08-16T02:32:50.505Z,99056.53
2022-08-16T02:34:56.447Z,99068.00
2022-08-16T02:36:59.903Z,99088.94
2022-08-16T02:39:06.266Z,99091.38
2022-08-16T02:41:09.965Z,99088.84
2022-08-16T02:43:14.768Z,99082.78
2022-08-16T02:45:24.622Z,99079.59
2022-08-16T02:47:27.482Z,99067.53
2022-08-16T02:49:58.380Z,99085.75
2022-08-16T02:51:52.026Z,99061.72
2022-08-16T02:53:54.350Z,99078.56
2022-08-16T02:56:00.589Z,99086.50
2022-08-16T02:58:03.482Z,99074.06
2022-08-16T03:00:32.155Z,99082.59
2022-08-16T03:02:33.629Z,99066.59
2022-08-16T03:04:51.187Z,99104.34
2022-08-16T03:06:57.501Z,99086.47
2022-08-16T03:09:15.121Z,99091.59
2022-08-16T03:11:23.372Z,99092.69
2022-08-16T03:13:25.672Z,99080.25
2022-08-16T03:15:29.273Z,99095.75
2022-08-16T03:17:32.522Z,99087.81
2022-08-16T03:19:47.953Z,99070.63
2022-08-16T03:21:59.177Z,99094.09
2022-08-16T03:24:01.538Z,99086.50
2022-08-16T03:26:03.961Z,99103.81
2022-08-16T03:28:09.947Z,99113.63
2022-08-16T03:30:23.614Z,99114.28
2022-08-16T03:32:29.381Z,99113.91
2022-08-16T03:34:32.315Z,99112.91
2022-08-16T03:36:35.484Z,99091.78
2022-08-16T03:38:41.056Z,99116.00
2022-08-16T03:40:46.358Z,99116.78
2022-08-16T03:43:18.741Z,99120.34
2022-08-16T03:45:15.632Z,99127.16
2022-08-16T03:47:19.796Z,99120.97
2022-08-16T03:49:36.460Z,99116.09
2022-08-16T03:51:42.380Z,99132.28
2022-08-16T03:53:57.699Z,99138.34
2022-08-16T03:56:07.062Z,99139.00
2022-08-16T03:58:11.297Z,99145.47
2022-08-16T04:00:36.159Z,99132.75
2022-08-16T04:02:47.132Z,99144.84
2022-08-16T04:04:52.991Z,99133.81
2022-08-16T04:06:57.720Z,99137.00
2022-08-16T04:09:00.126Z,99133.63
2022-08-16T04:11:03.951Z,99140.72
2022-08-16T04:13:20.976Z,99138.81
2022-08-16T04:15:31.251Z,99139.53
2022-08-16T04:17:58.057Z,99143.41
2022-08-16T04:20:00.557Z,99140.53
2022-08-16T04:22:08.696Z,99155.06
2022-08-16T04:24:18.956Z,99156.56
2022-08-16T04:26:22.331Z,99174.22
2022-08-16T04:28:52.045Z,99171.53
2022-08-16T04:30:50.486Z,99173.19
2022-08-16T04:32:55.602Z,99178.88
2022-08-16T04:35:03.464Z,99149.34
2022-08-16T04:37:09.712Z,99176.53
2022-08-16T04:39:16.836Z,99166.94
2022-08-16T04:41:19.368Z,99164.97
2022-08-16T04:43:34.608Z,99159.47
2022-08-16T04:45:38.293Z,99171.84
2022-08-16T04:47:47.966Z,99176.22
2022-08-16T04:50:06.095Z,99173.28
2022-08-16T04:52:33.444Z,99176.22
2022-08-16T04:54:32.448Z,99179.56
2022-08-16T04:56:35.436Z,99170.06
2022-08-16T04:58:47.001Z,99184.75
2022-08-16T05:00:51.123Z,99189.69
2022-08-16T05:02:58.824Z,99182.66
2022-08-16T05:05:01.770Z,99162.72
2022-08-16T05:07:04.569Z,99186.16
2022-08-16T05:09:36.567Z,99170.75
2022-08-16T05:11:41.640Z,99165.56
2022-08-16T05:13:47.557Z,99184.94
2022-08-16T05:15:57.972Z,99176.66
2022-08-16T05:18:03.701Z,99175.22
2022-08-16T05:20:38.448Z,99191.09
2022-08-16T05:22:40.663Z,99186.91
2022-08-16T05:24:50.254Z,99171.41
2022-08-16T05:26:57.780Z,99170.66
2022-08-16T05:29:04.449Z,99187.63
2022-08-16T05:31:08.530Z,99188.72
2022-08-16T05:33:16.317Z,99183.13
2022-08-16T05:35:21.699Z,99188.06
2022-08-16T05:37:42.070Z,99185.16
2022-08-16T05:39:47.201Z,99173.28
2022-08-16T05:41:51.719Z,99200.72
2022-08-16T05:43:59.151Z,99195.25
2022-08-16T05:46:28.867Z,99198.03
2022-08-16T05:48:37.512Z,99202.47
2022-08-16T05:50:44.487Z,99199.97
2022-08-16T05:52:55.455Z,99202.69
2022-08-16T05:55:01.589Z,99203.25
2022-08-16T05:57:08.597Z,99194.81
2022-08-16T05:59:18.973Z,99195.00
2022-08-16T06:01:21.658Z,99194.44
2022-08-16T06:03:29.534Z,99186.63
2022-08-16T06:05:52.161Z,99201.72
2022-08-16T06:07:58.994Z,99204.13
2022-08-16T06:10:09.934Z,99210.03
2022-08-16T06:12:26.724Z,99214.06
2022-08-16T06:14:36.573Z,99203.31
2022-08-16T06:16:42.798Z,99202.34
2022-08-16T06:18:44.898Z,99205.34
2022-08-16T06:20:51.650Z,99201.53
2022-08-16T06:23:04.171Z,99205.81
2022-08-16T06:25:36.179Z,99188.78
2022-08-16T06:27:40.904Z,99197.84
2022-08-16T06:29:43.791Z,99199.53
2022-08-16T06:31:52.078Z,99203.47
2022-08-16T06:33:55.795Z,99211.38
2022-08-16T06:36:02.790Z,99215.84
2022-08-16T06:38:05.192Z,99213.03
2022-08-16T06:40:13.055Z,99227.16
2022-08-16T06:42:24.164Z,99229.41
2022-08-16T06:44:41.434Z,99224.59
2022-08-16T06:46:59.164Z,99229.22
2022-08-16T06:49:12.154Z,99223.44
2022-08-16T06:51:16.684Z,99211.97
2022-08-16T06:53:20.486Z,99231.66
2022-08-16T06:55:35.447Z,99223.13
2022-08-16T06:57:45.503Z,99221.22
2022-08-16T06:59:52.135Z,99217.91
2022-08-16T07:02:07.210Z,99222.34
2022-08-16T07:04:33.420Z,99218.50
2022-08-16T07:06:54.195Z,99221.88
2022-08-16T07:08:57.588Z,99239.06
2022-08-16T07:11:02.720Z,99250.97
2022-08-16T07:13:12.068Z,99249.56
2022-08-16T07:15:19.655Z,99252.88
2022-08-16T07:17:28.217Z,99251.19
2022-08-16T07:20:02.659Z,99251.38
2022-08-16T07:22:00.705Z,99251.34
2022-08-16T07:24:06.068Z,99243.03
2022-08-16T07:26:25.172Z,99246.88
2022-08-16T07:28:28.856Z,99244.66
2022-08-16T07:30:45.647Z,99250.47
2022-08-16T07:33:15.859Z,99243.78
2022-08-16T07:35:20.098Z,99226.81
2022-08-16T07:37:22.407Z,99233.66
2022-08-16T07:39:45.772Z,99242.44
2022-08-16T07:41:49.048Z,99223.53
2022-08-16T07:43:51.262Z,99235.44
2022-08-16T07:45:55.574Z,99223.44
2022-08-16T07:47:57.967Z,99231.72
2022-08-16T07:50:05.672Z,99243.22
2022-08-16T07:52:20.219Z,99243.44
2022-08-16T07:54:32.158Z,99249.94
2022-08-16T07:56:44.047Z,99252.69
2022-08-16T07:58:46.766Z,99253.13
2022-08-16T08:00:51.723Z,99245.84
2022-08-16T08:02:57.059Z,99252.56
2022-08-16T08:05:15.171Z,99244.78
2022-08-16T08:07:36.789Z,99219.59
2022-08-16T08:09:44.248Z,99248.69
2022-08-16T08:12:00.955Z,99255.63
2022-08-16T08:14:11.707Z,99258.16
2022-08-16T08:16:33.497Z,99252.41
2022-08-16T08:18:39.037Z,99259.00
2022-08-16T08:20:42.245Z,99266.72
2022-08-16T08:22:48.434Z,99262.75
2022-08-16T08:24:51.669Z,99252.69
2022-08-16T08:26:56.937Z,99265.19
2022-08-16T08:29:00.692Z,99261.63
2022-08-16T08:31:05.580Z,99260.63
2022-08-16T08:33:13.176Z,99252.34
2022-08-16T08:35:19.425Z,99266.78
2022-08-16T08:37:54.554Z,99268.66
2022-08-16T08:39:55.543Z,99268.06
2022-08-16T08:41:58.816Z,99276.94
2022-08-16T08:44:01.159Z,99269.78
2022-08-16T08:46:25.485Z,99278.38
2022-08-16T08:48:34.112Z,99277.19
2022-08-16T08:50:50.271Z,99279.69
2022-08-16T08:52:55.965Z,99281.09
2022-08-16T08:54:58.930Z,99269.47
2022-08-16T08:57:04.888Z,99263.38
2022-08-16T08:59:25.687Z,99284.31
2022-08-16T09:01:42.936Z,99275.22
2022-08-16T09:04:00.254Z,99293.34
2022-08-16T09:06:05.235Z,99292.50
2022-08-16T09:08:12.591Z,99275.28
2022-08-16T09:10:32.206Z,99293.84
2022-08-16T09:12:54.306Z,99294.09
2022-08-16T09:15:24.034Z,99262.50
2022-08-16T09:19:53.897Z,99295.28
2022-08-16T09:21:58.297Z,99280.91
2022-08-16T09:24:47.183Z,99278.69
2022-08-16T09:26:52.680Z,99286.03
2022-08-16T09:29:16.585Z,99293.22
2022-08-16T09:31:19.066Z,99281.88
2022-08-16T09:33:23.226Z,99285.53
2022-08-16T09:35:28.463Z,99284.84
2022-08-16T09:37:36.826Z,99273.84
2022-08-16T09:39:41.550Z,99284.25
2022-08-16T09:41:53.468Z,99284.78
2022-08-16T09:43:59.210Z,99292.19
2022-08-16T09:46:44.639Z,99292.78
2022-08-16T09:48:44.066Z,99279.06
2022-08-16T09:53:07.805Z,99285.84
2022-08-16T09:55:17.957Z,99288.66
2022-08-16T09:57:20.446Z,99280.63
2022-08-16T09:59:30.603Z,99290.88
2022-08-16T10:01:33.705Z,99279.88
2022-08-16T10:03:35.900Z,99287.72
2022-08-16T10:05:41.259Z,99278.34
2022-08-16T10:07:45.736Z,99294.44
2022-08-16T10:09:55.335Z,99288.66
2022-08-16T10:12:19.238Z,99280.91
2022-08-16T10:14:33.069Z,99274.00
2022-08-16T10:16:59.757Z,99273.69
2022-08-16T10:19:43.600Z,99268.16
2022-08-16T10:21:56.329Z,99283.41
2022-08-16T10:25:03.416Z,99292.44
2022-08-16T10:30:39.143Z,99286.91
2022-08-16T10:32:42.858Z,99273.66
2022-08-16T10:34:54.334Z,99289.47
2022-08-16T10:36:56.550Z,99294.81
2022-08-16T10:40:45.569Z,99290.97
2022-08-16T10:42:48.214Z,99281.13
2022-08-16T10:45:14.899Z,99275.16
2022-08-16T10:47:43.369Z,99269.16
2022-08-16T10:50:07.125Z,99293.69
2022-08-16T10:58:11.848Z,99271.69
2022-08-16T11:03:57.804Z,99288.88
2022-08-16T11:06:12.017Z,99289.41
2022-08-16T11:08:35.127Z,99282.75
2022-08-16T11:11:05.234Z,99280.31
2022-08-16T11:15:29.656Z,99269.00
2022-08-16T11:17:32.608Z,99258.97
2022-08-16T11:22:39.487Z,99278.25
2022-08-16T11:24:41.302Z,99279.59
2022-08-16T11:27:23.010Z,99271.06
2022-08-16T11:29:59.167Z,99279.41
2022-08-16T11:32:07.630Z,99267.25
2022-08-16T11:34:14.208Z,99276.41
2022-08-16T11:36:28.361Z,99282.75
2022-08-16T11:38:51.638Z,99275.00
2022-08-16T11:41:00.869Z,99293.31
2022-08-16T11:43:04.573Z,99272.81
2022-08-16T11:45:11.038Z,99281.19
2022-08-16T11:47:14.375Z,99288.66
2022-08-16T11:49:17.205Z,99293.66
2022-08-16T11:51:25.968Z,99269.25
2022-08-16T11:54:09.020Z,99289.50
2022-08-16T11:59:12.799Z,99279.53
2022-08-16T12:01:18.695Z,99266.47
2022-08-16T12:03:43.431Z,99265.38
2022-08-16T12:05:47.155Z,99277.03
2022-08-16T12:07:58.296Z,99276.19
2022-08-16T12:10:24.497Z,99284.50
2022-08-16T12:13:02.871Z,99261.22
2022-08-16T12:18:04.286Z,99268.97
2022-08-16T12:20:47.195Z,99287.03
2022-08-16T12:22:55.315Z,99263.44
2022-08-16T12:28:13.358Z,99266.75
2022-08-16T12:30:52.634Z,99261.22
2022-08-16T12:33:33.157Z,99267.31
2022-08-16T12:39:00.376Z,99260.13
2022-08-16T12:42:18.517Z,99243.50
2022-08-16T12:45:17.449Z,99260.66
2022-08-16T12:47:21.658Z,99256.78
2022-08-16T12:49:25.256Z,99250.41
2022-08-16T12:51:58.207Z,99248.47
2022-08-16T12:54:00.447Z,99255.13
2022-08-16T13:00:37.360Z,99243.19
2022-08-16T13:03:04.157Z,99246.50
2022-08-16T13:05:18.800Z,99245.13
2022-08-16T13:07:26.988Z,99250.13
2022-08-16T13:10:03.475Z,99245.69
2022-08-16T13:12:12.355Z,99250.16
2022-08-16T13:14:30.875Z,99249.03
2022-08-16T13:16:35.421Z,99250.69
2022-08-16T13:18:41.170Z,99257.34
2022-08-16T13:20:44.505Z,99239.63
2022-08-16T13:22:54.604Z,99245.69
2022-08-16T13:24:57.455Z,99234.34
2022-08-16T13:26:59.737Z,99226.03
2022-08-16T13:29:04.446Z,99234.91
2022-08-16T13:31:08.187Z,99226.03
2022-08-16T13:33:24.753Z,99232.41
2022-08-16T13:35:34.572Z,99228.25
2022-08-16T13:37:37.617Z,99230.75
2022-08-16T13:39:43.964Z,99236.84
2022-08-16T13:41:53.514Z,99208.88
2022-08-16T13:43:57.823Z,99231.31
2022-08-16T13:46:02.988Z,99227.41
2022-08-16T13:48:07.166Z,99211.91
2022-08-16T13:50:14.466Z,99216.06
2022-08-16T13:52:18.067Z,99216.59
2022-08-16T13:54:20.637Z,99214.66
2022-08-16T13:56:25.764Z,99210.22
2022-08-16T13:58:36.697Z,99203.03
2022-08-16T14:00:52.953Z,99203.28
2022-08-16T14:02:59.250Z,99213.81
2022-08-16T14:05:05.451Z,99206.34
2022-08-16T14:07:12.246Z,99211.59
2022-08-16T14:09:22.545Z,99206.91
2022-08-16T14:11:26.365Z,99207.44
2022-08-16T14:13:28.743Z,99205.50
2022-08-16T14:15:32.088Z,99203.84
2022-08-16T14:18:15.783Z,99206.91
2022-08-16T14:20:19.074Z,99198.88
2022-08-16T14:22:30.864Z,99219.63
2022-08-16T14:24:36.795Z,99205.22
2022-08-16T14:26:40.012Z,99202.44
2022-08-16T14:28:42.559Z,99204.69
2022-08-16T14:30:45.365Z,99209.09
2022-08-16T14:32:51.334Z,99216.88
2022-08-16T14:34:56.364Z,99220.72
2022-08-16T14:36:59.498Z,99215.19
2022-08-16T14:39:02.205Z,99216.00
2022-08-16T14:41:05.271Z,99217.06
2022-08-16T14:43:15.435Z,99214.53
2022-08-16T14:45:24.314Z,99217.59
2022-08-16T14:47:31.564Z,99203.72
2022-08-16T14:49:37.964Z,99215.13
2022-08-16T14:51:43.195Z,99198.47
2022-08-16T14:53:45.737Z,99195.16
2022-08-16T14:55:54.815Z,99213.72
2022-08-16T14:57:57.874Z,99207.06
2022-08-16T15:00:05.941Z,99214.00
2022-08-16T15:02:33.879Z,99203.44
2022-08-16T15:04:48.353Z,99199.00
2022-08-16T15:06:53.507Z,99200.66
2022-08-16T15:08:57.854Z,99199.53
2022-08-16T15:11:00.075Z,99208.13
2022-08-16T15:13:09.582Z,99213.94
2022-08-16T15:15:16.809Z,99193.16
2022-08-16T15:17:26.457Z,99204.69
2022-08-16T15:19:29.115Z,99198.84
2022-08-16T15:21:34.486Z,99199.09
2022-08-16T15:23:40.399Z,99191.06
2022-08-16T15:25:46.044Z,99203.81
2022-08-16T15:27:55.408Z,99209.03
2022-08-16T15:30:01.579Z,99216.50
2022-08-16T15:32:11.645Z,99222.00
2022-08-16T15:34:30.075Z,99213.75
2022-08-16T15:36:32.338Z,99201.22
2022-08-16T15:39:01.969Z,99206.50
2022-08-16T15:41:00.026Z,99217.28
2022-08-16T15:43:07.056Z,99218.69
2022-08-16T15:45:11.379Z,99227.22
2022-08-16T15:47:15.824Z,99223.66
2022-08-16T15:49:20.334Z,99218.69
2022-08-16T15:51:27.455Z,99222.53
2022-08-16T15:53:31.723Z,99216.72
2022-08-16T15:55:43.824Z,99220.88
2022-08-16T15:57:54.090Z,99234.44
2022-08-16T16:00:05.003Z,99220.00
2022-08-16T16:02:29.242Z,99230.81
2022-08-16T16:04:33.944Z,99226.28
2022-08-16T16:06:37.264Z,99230.13
2022-08-16T16:08:41.737Z,99235.56
2022-08-16T16:10:54.782Z,99240.03
2022-08-16T16:13:00.528Z,99232.72
2022-08-16T16:15:05.593Z,99239.13
2022-08-16T16:17:16.745Z,99239.66
2022-08-16T16:19:24.493Z,99247.09
2022-08-16T16:21:29.245Z,99230.47
2022-08-16T16:23:44.863Z,99236.47
2022-08-16T16:26:05.901Z,99236.13
2022-08-16T16:28:12.749Z,99242.44
2022-08-16T16:30:45.393Z,99247.47
2022-08-16T16:33:03.917Z,99250.53
2022-08-16T16:35:14.657Z,99244.19
2022-08-16T16:37:31.455Z,99248.03
2022-08-16T16:39:40.355Z,99245.81
2022-08-16T16:41:56.236Z,99254.09
2022-08-16T16:44:31.712Z,99235.56
2022-08-16T16:47:04.065Z,99230.78
2022-08-16T16:49:11.125Z,99248.50
2022-08-16T16:51:20.223Z,99246.31
2022-08-16T16:53:37.739Z,99231.50
2022-08-16T16:55:52.064Z,99244.25
2022-08-16T16:58:18.020Z,99248.09
2022-08-16T17:00:40.862Z,99246.59
2022-08-16T17:02:53.714Z,99250.41
2022-08-16T17:05:02.692Z,99239.81
2022-08-16T17:07:37.492Z,99253.25
2022-08-16T17:12:47.219Z,99240.78
2022-08-16T17:15:55.788Z,99261.34
2022-08-16T17:18:02.089Z,99259.84
2022-08-16T17:20:29.522Z,99262.41
2022-08-16T17:22:42.154Z,99253.75
2022-08-16T17:24:58.015Z,99264.41
2022-08-16T17:27:05.594Z,99262.84
2022-08-16T17:29:15.603Z,99258.84
2022-08-16T17:31:41.103Z,99270.97
2022-08-16T17:34:00.773Z,99264.72
2022-08-16T17:36:35.990Z,99251.28
2022-08-16T17:38:46.028Z,99267.63
2022-08-16T17:41:05.838Z,99258.25
2022-08-16T17:43:13.907Z,99277.75
2022-08-16T17:45:27.436Z,99281.44
2022-08-16T17:47:43.925Z,99282.31
2022-08-16T17:49:49.874Z,99268.75
2022-08-16T17:51:54.899Z,99275.34
2022-08-16T17:54:09.036Z,99273.91
2022-08-16T17:57:04.484Z,99265.00
2022-08-16T18:00:05.125Z,99277.81
2022-08-16T18:02:42.381Z,99290.25
2022-08-16T18:05:06.353Z,99271.75
2022-08-16T18:07:13.518Z,99281.81
2022-08-16T18:09:17.061Z,99273.59
2022-08-16T18:11:26.179Z,99272.03
2022-08-16T18:13:35.605Z,99283.38
2022-08-16T18:15:52.636Z,99293.31
2022-08-16T18:17:58.556Z,99297.66
2022-08-16T18:20:14.826Z,99299.19
2022-08-16T18:22:31.219Z,99278.31
2022-08-16T18:26:56.683Z,99279.72
2022-08-16T18:29:44.319Z,99284.78
2022-08-16T18:31:48.645Z,99289.16
2022-08-16T18:33:55.701Z,99289.72
2022-08-16T18:36:20.608Z,99301.66
2022-08-16T18:38:26.196Z,99295.13
2022-08-16T18:40:30.749Z,99283.66
2022-08-16T18:42:40.146Z,99299.28
2022-08-16T18:44:46.046Z,99293.84
2022-08-16T18:46:54.958Z,99306.88
2022-08-16T18:49:17.965Z,99289.38
2022-08-16T18:51:29.826Z,99304.16
2022-08-16T18:53:33.236Z,99299.56
2022-08-16T18:55:36.420Z,99305.03
2022-08-16T18:57:51.941Z,99283.69
2022-08-16T18:59:55.695Z,99290.63
2022-08-16T19:02:04.362Z,99299.81
2022-08-16T19:04:55.273Z,99298.25
2022-08-16T19:06:30.756Z,99306.28
2022-08-16T19:08:34.058Z,99317.09
2022-08-16T19:10:38.810Z,99324.13
2022-08-16T19:12:42.351Z,99300.13
2022-08-16T19:14:45.523Z,99330.84
2022-08-16T19:16:48.545Z,99323.69
2022-08-16T19:18:50.756Z,99324.88
2022-08-16T19:20:57.405Z,99318.25
2022-08-16T19:23:04.959Z,99321.81
2022-08-16T19:25:48.370Z,99325.16
2022-08-16T19:28:07.885Z,99315.94
2022-08-16T19:30:23.957Z,99333.38
2022-08-16T19:32:29.200Z,99332.38
2022-08-16T19:34:31.847Z,99315.09
2022-08-16T19:36:39.106Z,99326.03
2022-08-16T19:38:41.476Z,99307.41
2022-08-16T19:40:44.544Z,99321.28
2022-08-16T19:42:53.225Z,99325.50
2022-08-16T19:48:15.605Z,99336.03
2022-08-16T19:54:12.257Z,99318.91
2022-08-16T19:56:23.768Z,99333.56
2022-08-16T19:58:26.019Z,99338.38
2022-08-16T20:00:35.493Z,99329.16
2022-08-16T20:02:53.942Z,99338.84
2022-08-16T20:05:04.626Z,99347.06
2022-08-16T20:07:09.695Z,99347.06
2022-08-16T20:09:15.056Z,99322.72
2022-08-16T20:11:27.407Z,99337.44
2022-08-16T20:13:30.378Z,99354.25
2022-08-16T20:15:37.572Z,99348.34
2022-08-16T20:17:54.382Z,99346.22
2022-08-16T20:20:03.827Z,99333.22
2022-08-16T20:22:49.811Z,99348.75
2022-08-16T20:24:46.517Z,99351.28
2022-08-16T20:26:58.146Z,99347.06
2022-08-16T20:29:13.044Z,99337.41
2022-08-16T20:31:18.717Z,99351.69
2022-08-16T20:33:21.007Z,99363.66
2022-08-16T20:35:29.294Z,99359.25
2022-08-16T20:37:31.734Z,99336.94
2022-08-16T20:39:35.378Z,99354.38
2022-08-16T20:41:43.240Z,99359.84
2022-08-16T20:43:47.252Z,99346.16
2022-08-16T20:45:52.338Z,99363.19
2022-08-16T20:47:58.369Z,99365.28
2022-08-16T20:50:02.487Z,99360.47
2022-08-16T20:52:13.307Z,99356.25
2022-08-16T20:54:21.032Z,99360.19
2022-08-16T20:56:23.949Z,99357.66
2022-08-16T20:58:26.598Z,99333.28
2022-08-16T21:00:32.065Z,99356.16
2022-08-16T21:02:35.027Z,99353.97
2022-08-16T21:04:41.060Z,99366.13
2022-08-16T21:06:54.113Z,99369.47
2022-08-16T21:08:57.635Z,99363.09
2022-08-16T21:11:03.918Z,99367.34
2022-08-16T21:13:08.646Z,99372.16
2022-08-16T21:15:17.176Z,99356.97
2022-08-16T21:17:24.266Z,99372.97
2022-08-16T21:19:28.172Z,99363.56
2022-08-16T21:21:41.979Z,99377.09
2022-08-16T21:23:44.291Z,99354.16
2022-08-16T21:25:58.472Z,99375.38
2022-08-16T21:28:39.417Z,99355.66
2022-08-16T21:30:32.393Z,99371.63
2022-08-16T21:32:39.967Z,99357.06
2022-08-16T21:35:20.154Z,99347.63
2022-08-16T21:40:10.836Z,99356.44
2022-08-16T21:42:26.279Z,99368.56
2022-08-16T21:44:38.867Z,99369.81
2022-08-16T21:46:48.907Z,99371.50
2022-08-16T21:48:57.059Z,99367.25
2022-08-16T21:51:07.524Z,99371.44
2022-08-16T21:53:23.787Z,99377.25
2022-08-16T21:55:37.956Z,99372.78
2022-08-16T21:58:17.398Z,99353.59
2022-08-16T22:02:55.964Z,99356.69
2022-08-16T22:05:13.826Z,99375.78
2022-08-16T22:07:31.158Z,99363.78
2022-08-16T22:12:25.140Z,99385.84
2022-08-16T22:14:43.487Z,99388.09
2022-08-16T22:16:56.877Z,99366.84
2022-08-16T22:22:12.529Z,99386.94
2022-08-16T22:28:53.741Z,99395.13
2022-08-16T22:31:00.630Z,99387.91
2022-08-16T22:33:26.579Z,99388.97
2022-08-16T22:36:03.247Z,99384.53
2022-08-16T22:38:55.765Z,99388.44
2022-08-16T22:43:28.775Z,99380.44
2022-08-16T22:45:35.917Z,99356.31
2022-08-16T22:47:43.456Z,99384.19
2022-08-16T22:49:54.533Z,99384.19
2022-08-16T22:52:14.428Z,99381.22
2022-08-16T22:54:48.671Z,99391.53
2022-08-16T22:56:51.708Z,99366.72
2022-08-16T22:58:54.698Z,99360.06
2022-08-16T23:00:57.080Z,99372.06
2022-08-16T23:03:11.479Z,99390.31
2022-08-16T23:05:24.564Z,99376.09
2022-08-16T23:07:26.985Z,99371.81
2022-08-16T23:09:29.380Z,99367.94
2022-08-16T23:11:32.607Z,99358.78
2022-08-16T23:13:36.242Z,99367.84
2022-08-16T23:15:49.229Z,99366.16
2022-08-16T23:17:56.023Z,99369.25
2022-08-16T23:19:58.373Z,99369.03
2022-08-16T23:22:01.483Z,99371.03
2022-08-16T23:24:04.231Z,99379.91
2022-08-16T23:26:44.305Z,99369.22
2022-08-16T23:28:31.091Z,99365.41
2022-08-16T23:30:35.511Z,99348.56
2022-08-16T23:32:52.025Z,99368.88
2022-08-16T23:34:54.383Z,99365.59
2022-08-16T23:36:56.974Z,99358.59
2022-08-16T23:38:59.277Z,99348.94
2022-08-16T23:41:03.395Z,99366.53
2022-08-16T23:43:16.032Z,99371.03
2022-08-16T23:45:18.707Z,99361.31
2022-08-16T23:47:20.705Z,99371.09
2022-08-16T23:49:58.039Z,99361.72
2022-08-16T23:51:45.232Z,99370.66
2022-08-16T23:53:47.288Z,99361.31
2022-08-16T23:56:00.256Z,99374.94
2022-08-16T23:58:02.625Z,99370.53
